createdAt,value
2023-04-21T00:01:53.170Z,85.82
2023-04-21T00:04:26.281Z,81.29
2023-04-21T00:07:01.412Z,85.34
2023-04-21T00:09:34.433Z,86.53
2023-04-21T00:12:07.548Z,85.05
2023-04-21T00:14:41.085Z,88.07
2023-04-21T00:17:15.254Z,87.31
2023-04-21T00:19:48.234Z,85.74
2023-04-21T00:22:21.667Z,88.83
2023-04-21T00:24:54.465Z,89.09
2023-04-21T00:27:27.314Z,87.37
2023-04-21T00:30:00.400Z,89.06
2023-04-21T00:32:34.779Z,88.20
2023-04-21T00:35:09.000Z,88.72
2023-04-21T00:37:42.273Z,88.60
2023-04-21T00:40:17.451Z,89.70
2023-04-21T00:42:50.388Z,89.88
2023-04-21T00:45:23.258Z,89.48
2023-04-21T00:47:57.746Z,89.79
2023-04-21T00:50:31.299Z,90.18
2023-04-21T00:53:05.281Z,89.40
2023-04-21T00:55:38.578Z,88.26
2023-04-21T00:58:11.531Z,89.39
2023-04-21T01:00:44.723Z,86.72
2023-04-21T01:03:19.559Z,87.55
2023-04-21T01:05:53.220Z,87.81
2023-04-21T01:08:28.029Z,86.97
2023-04-21T01:11:01.068Z,88.06
2023-04-21T01:13:33.934Z,89.17
2023-04-21T01:16:07.945Z,87.45
2023-04-21T01:18:42.179Z,88.29
2023-04-21T01:21:16.486Z,90.54
2023-04-21T01:23:50.734Z,89.44
2023-04-21T01:26:24.384Z,89.86
2023-04-21T01:28:58.163Z,90.62
2023-04-21T01:31:31.252Z,88.75
2023-04-21T01:34:05.209Z,87.49
2023-04-21T01:36:38.268Z,90.04
2023-04-21T01:39:12.467Z,89.38
2023-04-21T01:41:45.528Z,90.37
2023-04-21T01:44:18.450Z,90.51
2023-04-21T01:46:51.761Z,89.99
2023-04-21T01:49:24.590Z,92.23
2023-04-21T01:51:57.560Z,91.13
2023-04-21T01:54:32.054Z,91.36
2023-04-21T01:57:05.521Z,90.27
2023-04-21T01:59:38.657Z,91.98
2023-04-21T02:02:11.778Z,89.44
2023-04-21T02:04:44.650Z,90.06
2023-04-21T02:07:17.559Z,89.06
2023-04-21T02:09:51.826Z,89.46
2023-04-21T02:12:24.735Z,91.42
2023-04-21T02:14:57.884Z,92.10
2023-04-21T02:17:31.651Z,92.13
2023-04-21T02:20:05.278Z,92.99
2023-04-21T02:22:38.699Z,93.09
2023-04-21T02:25:12.953Z,94.11
2023-04-21T02:27:45.843Z,95.40
2023-04-21T02:30:18.915Z,94.31
2023-04-21T02:32:51.963Z,95.16
2023-04-21T02:35:24.939Z,94.06
2023-04-21T02:37:58.076Z,94.24
2023-04-21T02:40:32.480Z,92.50
2023-04-21T02:43:05.353Z,93.04
2023-04-21T02:45:38.385Z,94.82
2023-04-21T02:48:11.718Z,94.19
2023-04-21T02:50:45.034Z,94.35
2023-04-21T02:53:17.980Z,94.39
2023-04-21T02:55:52.152Z,93.39
2023-04-21T02:58:24.994Z,91.83
2023-04-21T03:00:58.206Z,93.96
2023-04-21T03:03:31.746Z,93.95
2023-04-21T03:06:06.429Z,92.93
2023-04-21T03:08:39.287Z,93.31
2023-04-21T03:11:13.652Z,94.16
2023-04-21T03:13:46.798Z,91.66
2023-04-21T03:16:20.112Z,90.74
2023-04-21T03:18:53.074Z,91.92
2023-04-21T03:21:26.005Z,93.17
2023-04-21T03:23:59.101Z,93.51
2023-04-21T03:26:33.947Z,93.24
2023-04-21T03:29:07.305Z,91.38
2023-04-21T03:31:40.172Z,92.85
2023-04-21T03:34:13.198Z,91.89
2023-04-21T03:36:46.236Z,91.55
2023-04-21T03:39:20.562Z,91.37
2023-04-21T03:41:56.776Z,94.33
2023-04-21T03:44:29.884Z,92.30
2023-04-21T03:47:04.365Z,93.72
2023-04-21T03:49:37.211Z,94.66
2023-04-21T03:52:10.213Z,92.58
2023-04-21T03:54:43.104Z,94.88
2023-04-21T03:57:17.592Z,95.22
2023-04-21T03:59:50.511Z,94.28
2023-04-21T04:02:23.335Z,95.76
2023-04-21T04:04:56.476Z,95.03
2023-04-21T04:07:29.526Z,94.53
2023-04-21T04:10:02.505Z,95.91
2023-04-21T04:12:36.858Z,96.19
2023-04-21T04:15:10.456Z,96.04
2023-04-21T04:17:43.715Z,95.43
2023-04-21T04:20:16.788Z,94.74
2023-04-21T04:22:49.692Z,96.78
2023-04-21T04:25:22.637Z,97.27
2023-04-21T04:27:57.353Z,96.40
2023-04-21T04:30:30.160Z,96.60
2023-04-21T04:33:03.488Z,95.07
2023-04-21T04:35:37.508Z,93.90
2023-04-21T04:38:11.143Z,94.80
2023-04-21T04:40:44.020Z,96.48
2023-04-21T04:43:18.269Z,97.08
2023-04-21T04:45:51.978Z,98.11
2023-04-21T04:48:25.342Z,98.65
2023-04-21T04:50:58.296Z,97.26
2023-04-21T04:53:31.242Z,97.42
2023-04-21T04:56:04.064Z,97.78
2023-04-21T04:58:38.508Z,97.04
2023-04-21T05:01:14.819Z,97.18
2023-04-21T05:03:47.973Z,97.32
2023-04-21T05:06:20.933Z,93.76
2023-04-21T05:08:53.940Z,94.25
2023-04-21T05:11:26.820Z,96.33
2023-04-21T05:14:01.544Z,97.11
2023-04-21T05:16:34.894Z,96.96
2023-04-21T05:19:07.724Z,98.07
2023-04-21T05:21:40.578Z,98.89
2023-04-21T05:24:13.537Z,99.06
2023-04-21T05:26:46.467Z,99.08
2023-04-21T05:29:21.029Z,98.51
2023-04-21T05:31:53.947Z,98.36
2023-04-21T05:34:26.891Z,98.49
2023-04-21T05:36:59.635Z,99.21
2023-04-21T05:39:32.555Z,99.52
2023-04-21T05:42:05.466Z,99.14
2023-04-21T05:44:40.554Z,100.00
2023-04-21T05:47:13.345Z,100.00
2023-04-21T05:49:50.240Z,99.36
2023-04-21T05:52:23.224Z,99.85
2023-04-21T05:54:55.992Z,99.50
2023-04-21T05:57:28.752Z,98.46
2023-04-21T06:00:02.918Z,98.83
2023-04-21T06:02:38.609Z,98.54
2023-04-21T06:05:11.745Z,98.10
2023-04-21T06:07:44.595Z,97.99
2023-04-21T06:10:18.866Z,96.65
2023-04-21T06:12:51.728Z,98.14
2023-04-21T06:15:26.003Z,96.61
2023-04-21T06:17:58.841Z,97.19
2023-04-21T06:20:31.627Z,98.41
2023-04-21T06:23:04.776Z,99.19
2023-04-21T06:25:37.563Z,100.00
2023-04-21T06:28:11.129Z,100.00
2023-04-21T06:30:45.944Z,98.80
2023-04-21T06:33:18.694Z,96.92
2023-04-21T06:35:54.954Z,97.76
2023-04-21T06:38:27.863Z,97.80
2023-04-21T06:41:00.706Z,97.63
2023-04-21T06:43:33.774Z,98.43
2023-04-21T06:46:08.161Z,98.17
2023-04-21T06:48:40.940Z,97.89
2023-04-21T06:51:13.866Z,98.17
2023-04-21T06:53:46.660Z,98.33
2023-04-21T06:56:19.477Z,96.48
2023-04-21T06:58:52.487Z,96.57
2023-04-21T07:01:26.986Z,96.56
2023-04-21T07:04:01.312Z,96.99
2023-04-21T07:06:34.492Z,95.82
2023-04-21T07:09:07.256Z,95.46
2023-04-21T07:11:39.981Z,96.23
2023-04-21T07:14:12.733Z,94.02
2023-04-21T07:16:46.952Z,95.10
2023-04-21T07:19:19.981Z,93.94
2023-04-21T07:21:52.957Z,95.11
2023-04-21T07:24:25.894Z,94.61
2023-04-21T07:26:58.803Z,94.06
2023-04-21T07:29:31.779Z,94.71
2023-04-21T07:32:06.052Z,95.00
2023-04-21T07:34:38.881Z,94.36
2023-04-21T07:37:12.127Z,95.69
2023-04-21T07:39:44.904Z,93.87
2023-04-21T07:42:18.014Z,92.52
2023-04-21T07:44:50.960Z,93.48
2023-04-21T07:47:25.142Z,90.46
2023-04-21T07:49:58.000Z,90.48
2023-04-21T07:52:30.936Z,90.76
2023-04-21T07:55:03.728Z,88.69
2023-04-21T07:57:38.467Z,92.22
2023-04-21T08:00:12.957Z,89.92
2023-04-21T08:02:48.186Z,89.43
2023-04-21T08:05:21.286Z,89.08
2023-04-21T08:07:54.203Z,86.49
2023-04-21T08:10:27.030Z,86.27
2023-04-21T08:12:59.905Z,87.20
2023-04-21T08:15:32.775Z,85.38
2023-04-21T08:18:07.201Z,87.42
2023-04-21T08:20:40.301Z,86.51
2023-04-21T08:23:13.364Z,84.93
2023-04-21T08:25:47.331Z,83.79
2023-04-21T08:28:20.530Z,87.62
2023-04-21T08:30:57.048Z,84.47
2023-04-21T08:33:31.587Z,83.52
2023-04-21T08:36:12.246Z,84.90
2023-04-21T08:38:51.267Z,83.88
2023-04-21T08:41:25.177Z,85.20
2023-04-21T08:43:58.062Z,83.20
2023-04-21T08:46:32.741Z,83.33
2023-04-21T08:49:07.499Z,81.24
2023-04-21T08:51:41.027Z,81.52
2023-04-21T08:54:13.903Z,80.82
2023-04-21T08:56:49.030Z,80.41
2023-04-21T08:59:22.091Z,81.44
2023-04-21T09:02:12.229Z,79.57
2023-04-21T09:04:48.161Z,80.87
2023-04-21T09:07:34.966Z,79.82
2023-04-21T09:10:09.003Z,79.79
2023-04-21T09:12:41.987Z,79.98
2023-04-21T09:15:14.963Z,79.10
2023-04-21T09:17:47.965Z,78.78
2023-04-21T09:20:23.659Z,79.91
2023-04-21T09:22:56.532Z,78.35
2023-04-21T09:25:29.281Z,76.29
2023-04-21T09:28:02.272Z,76.97
2023-04-21T09:34:24.722Z,76.98
2023-04-21T09:37:02.067Z,77.59
2023-04-21T09:39:46.237Z,79.31
2023-04-21T09:42:30.090Z,75.80
2023-04-21T09:45:28.343Z,78.59
2023-04-21T09:47:58.281Z,77.66
2023-04-21T09:53:11.984Z,76.16
2023-04-21T09:55:48.598Z,76.25
2023-04-21T09:58:25.030Z,77.30
2023-04-21T10:00:58.752Z,76.52
2023-04-21T10:03:32.628Z,77.50
2023-04-21T10:06:06.527Z,79.13
2023-04-21T10:08:41.736Z,78.24
2023-04-21T10:11:15.730Z,77.79
2023-04-21T10:13:48.945Z,79.06
2023-04-21T10:16:23.300Z,80.33
2023-04-21T10:18:56.177Z,82.19
2023-04-21T10:21:29.249Z,79.59
2023-04-21T10:24:08.183Z,82.06
2023-04-21T10:26:41.020Z,81.18
2023-04-21T10:32:33.854Z,81.61
2023-04-21T10:35:10.507Z,82.00
2023-04-21T10:37:58.517Z,82.68
2023-04-21T10:43:48.106Z,78.75
2023-04-21T10:49:51.025Z,80.72
2023-04-21T10:52:33.529Z,78.33
2023-04-21T10:55:10.546Z,78.93
2023-04-21T10:57:46.485Z,78.44
2023-04-21T11:00:22.948Z,78.22
2023-04-21T11:03:00.911Z,77.27
2023-04-21T11:05:38.636Z,77.85
2023-04-21T11:08:14.499Z,76.70
2023-04-21T11:10:53.967Z,74.75
2023-04-21T11:13:33.484Z,74.67
2023-04-21T11:16:08.263Z,72.95
2023-04-21T11:18:42.223Z,73.28
2023-04-21T11:21:17.893Z,73.52
2023-04-21T11:23:52.904Z,69.97
2023-04-21T11:26:34.130Z,66.41
2023-04-21T11:29:11.516Z,70.02
2023-04-21T11:31:47.886Z,70.46
2023-04-21T11:34:22.390Z,68.15
2023-04-21T11:36:55.749Z,64.81
2023-04-21T11:39:28.568Z,66.30
2023-04-21T11:42:02.305Z,68.32
2023-04-21T11:44:37.529Z,64.63
2023-04-21T11:47:14.176Z,62.87
2023-04-21T11:49:51.239Z,58.73
2023-04-21T11:52:25.856Z,62.33
2023-04-21T11:54:59.512Z,63.11
2023-04-21T11:57:34.267Z,62.89
2023-04-21T12:00:11.721Z,61.36
2023-04-21T12:02:45.401Z,62.87
2023-04-21T12:05:18.373Z,62.61
2023-04-21T12:07:52.208Z,60.62
2023-04-21T12:10:25.228Z,63.60
2023-04-21T12:12:58.257Z,62.37
2023-04-21T12:15:33.046Z,61.27
2023-04-21T12:18:14.176Z,62.14
2023-04-21T12:21:20.748Z,61.11
2023-04-21T12:23:53.744Z,62.07
2023-04-21T12:30:01.642Z,62.53
2023-04-21T12:35:59.753Z,59.15
2023-04-21T12:38:32.685Z,59.30
2023-04-21T12:41:06.195Z,59.04
2023-04-21T12:43:38.970Z,58.75
2023-04-21T12:46:14.189Z,59.42
2023-04-21T12:48:48.666Z,57.22
2023-04-21T12:51:22.979Z,60.64
2023-04-21T12:53:56.033Z,58.66
2023-04-21T12:56:29.479Z,60.32
2023-04-21T12:59:02.614Z,60.61
2023-04-21T13:01:35.518Z,57.50
2023-04-21T13:04:08.856Z,58.81
2023-04-21T13:06:43.528Z,56.12
2023-04-21T13:09:17.135Z,55.61
2023-04-21T13:11:51.618Z,56.67
2023-04-21T13:14:24.544Z,55.98
2023-04-21T13:16:57.553Z,56.05
2023-04-21T13:19:33.240Z,57.41
2023-04-21T13:22:07.763Z,53.79
2023-04-21T13:24:40.621Z,55.48
2023-04-21T13:27:13.616Z,53.04
2023-04-21T13:29:49.250Z,53.30
2023-04-21T13:32:22.442Z,52.57
2023-04-21T13:34:55.276Z,51.02
2023-04-21T13:37:29.461Z,52.20
2023-04-21T13:40:02.397Z,52.28
2023-04-21T13:42:36.249Z,52.90
2023-04-21T13:45:10.216Z,52.86
2023-04-21T13:47:43.201Z,51.05
2023-04-21T13:50:16.215Z,53.11
2023-04-21T13:52:50.321Z,52.81
2023-04-21T13:55:23.458Z,51.71
2023-04-21T13:57:58.620Z,52.71
2023-04-21T14:00:31.600Z,52.91
2023-04-21T14:03:05.193Z,52.75
2023-04-21T14:05:38.248Z,51.48
2023-04-21T14:08:12.534Z,51.41
2023-04-21T14:10:45.343Z,53.70
2023-04-21T14:15:56.883Z,53.22
2023-04-21T14:18:29.745Z,53.42
2023-04-21T14:21:02.551Z,53.34
2023-04-21T14:23:36.974Z,52.10
2023-04-21T14:26:09.981Z,54.04
2023-04-21T14:28:43.099Z,53.07
2023-04-21T14:31:16.252Z,53.52
2023-04-21T14:33:49.278Z,52.98
2023-04-21T14:36:22.329Z,52.42
2023-04-21T14:38:56.583Z,53.44
2023-04-21T14:41:29.515Z,55.42
2023-04-21T14:44:03.736Z,55.04
2023-04-21T14:46:37.147Z,54.67
2023-04-21T14:49:10.619Z,52.62
2023-04-21T14:51:46.127Z,55.78
2023-04-21T14:54:20.309Z,54.17
2023-04-21T14:57:00.501Z,52.88
2023-04-21T14:59:39.871Z,53.60
2023-04-21T15:02:13.130Z,55.13
2023-04-21T15:04:46.361Z,54.81
2023-04-21T15:07:24.465Z,58.01
2023-04-21T15:09:59.031Z,56.75
2023-04-21T15:12:32.460Z,58.04
2023-04-21T15:15:07.662Z,55.61
2023-04-21T15:17:40.525Z,56.37
2023-04-21T15:20:13.849Z,54.51
2023-04-21T15:22:47.039Z,56.84
2023-04-21T15:25:21.370Z,57.25
2023-04-21T15:27:54.533Z,57.05
2023-04-21T15:30:27.311Z,58.18
2023-04-21T15:33:01.006Z,58.10
2023-04-21T15:35:33.956Z,59.34
2023-04-21T15:38:07.009Z,58.81
2023-04-21T15:40:53.193Z,57.72
2023-04-21T15:43:33.015Z,59.63
2023-04-21T15:46:12.887Z,59.50
2023-04-21T15:48:45.899Z,61.43
2023-04-21T15:51:20.052Z,59.24
2023-04-21T15:53:52.903Z,57.71
2023-04-21T15:56:27.093Z,63.55
2023-04-21T15:59:00.268Z,60.54
2023-04-21T16:01:35.613Z,60.73
2023-04-21T16:04:08.991Z,62.28
2023-04-21T16:06:41.944Z,60.67
2023-04-21T16:09:14.824Z,60.53
2023-04-21T16:11:51.245Z,62.42
2023-04-21T16:14:24.669Z,61.49
2023-04-21T16:16:57.659Z,60.37
2023-04-21T16:19:30.622Z,59.37
2023-04-21T16:22:07.015Z,59.24
2023-04-21T16:24:41.676Z,59.00
2023-04-21T16:27:16.552Z,57.27
2023-04-21T16:29:50.216Z,62.65
2023-04-21T16:32:23.327Z,62.07
2023-04-21T16:34:56.410Z,62.16
2023-04-21T16:37:29.279Z,61.45
2023-04-21T16:40:05.721Z,60.61
2023-04-21T16:42:39.900Z,60.50
2023-04-21T16:45:13.270Z,62.28
2023-04-21T16:47:46.467Z,63.46
2023-04-21T16:50:19.567Z,63.94
2023-04-21T16:52:52.385Z,62.35
2023-04-21T16:55:25.370Z,64.50
2023-04-21T16:58:00.283Z,62.17
2023-04-21T17:00:33.296Z,62.11
2023-04-21T17:03:06.296Z,62.16
2023-04-21T17:05:40.018Z,64.27
2023-04-21T17:08:13.008Z,63.48
2023-04-21T17:10:45.899Z,63.57
2023-04-21T17:13:20.163Z,64.83
2023-04-21T17:15:53.956Z,63.77
2023-04-21T17:18:26.932Z,56.36
2023-04-21T17:20:59.836Z,50.87
2023-04-21T17:23:32.787Z,49.66
2023-04-21T17:26:06.570Z,44.11
2023-04-21T17:28:40.896Z,38.04
2023-04-21T17:31:16.169Z,37.60
2023-04-21T17:33:52.321Z,41.28
2023-04-21T17:36:25.263Z,49.98
2023-04-21T17:38:58.503Z,56.93
2023-04-21T17:41:31.286Z,58.99
2023-04-21T17:44:05.941Z,57.26
2023-04-21T17:46:38.980Z,59.91
2023-04-21T17:49:12.277Z,60.12
2023-04-21T17:51:45.262Z,60.05
2023-04-21T17:54:18.145Z,61.82
2023-04-21T17:56:51.257Z,62.44
2023-04-21T17:59:26.305Z,63.81
2023-04-21T18:01:59.281Z,64.21
2023-04-21T18:04:33.920Z,63.14
2023-04-21T18:07:07.091Z,63.94
2023-04-21T18:09:40.029Z,63.74
2023-04-21T18:12:12.978Z,64.86
2023-04-21T18:14:51.194Z,64.41
2023-04-21T18:17:24.362Z,64.07
2023-04-21T18:19:57.257Z,64.92
2023-04-21T18:22:30.141Z,65.23
2023-04-21T18:25:03.176Z,63.85
2023-04-21T18:27:36.089Z,66.45
2023-04-21T18:30:11.012Z,67.43
2023-04-21T18:32:43.970Z,65.41
2023-04-21T18:35:16.867Z,68.78
2023-04-21T18:37:49.827Z,64.63
2023-04-21T18:40:22.834Z,63.76
2023-04-21T18:42:55.658Z,64.46
2023-04-21T18:45:30.230Z,66.81
2023-04-21T18:48:03.343Z,67.50
2023-04-21T18:50:39.486Z,69.03
2023-04-21T18:53:12.749Z,68.32
2023-04-21T18:55:45.594Z,68.99
2023-04-21T18:58:18.656Z,68.41
2023-04-21T19:00:52.972Z,70.64
2023-04-21T19:03:26.556Z,69.91
2023-04-21T19:05:59.617Z,71.15
2023-04-21T19:08:41.999Z,70.22
2023-04-21T19:11:15.826Z,69.24
2023-04-21T19:13:48.762Z,69.79
2023-04-21T19:16:23.022Z,70.45
2023-04-21T19:18:55.955Z,71.55
2023-04-21T19:21:29.686Z,72.10
2023-04-21T19:24:02.560Z,72.21
2023-04-21T19:26:35.872Z,72.16
2023-04-21T19:29:11.634Z,73.48
2023-04-21T19:31:45.888Z,71.37
2023-04-21T19:34:19.018Z,71.51
2023-04-21T19:36:52.803Z,72.77
2023-04-21T19:39:26.033Z,74.57
2023-04-21T19:42:02.041Z,73.65
2023-04-21T19:44:35.355Z,73.38
2023-04-21T19:47:09.781Z,72.37
2023-04-21T19:49:42.608Z,73.34
2023-04-21T19:52:15.447Z,73.47
2023-04-21T19:54:48.599Z,76.50
2023-04-21T19:57:21.917Z,75.68
2023-04-21T19:59:54.686Z,75.60
2023-04-21T20:02:29.038Z,76.38
2023-04-21T20:05:02.100Z,76.18
2023-04-21T20:07:35.072Z,77.28
2023-04-21T20:10:08.920Z,77.72
2023-04-21T20:12:41.745Z,76.63
2023-04-21T20:15:14.558Z,75.84
2023-04-21T20:17:49.051Z,77.92
2023-04-21T20:20:22.008Z,78.10
2023-04-21T20:22:54.860Z,75.90
2023-04-21T20:25:28.093Z,76.44
2023-04-21T20:28:01.165Z,77.55
2023-04-21T20:30:33.952Z,77.70
2023-04-21T20:33:08.244Z,77.77
2023-04-21T20:35:43.788Z,77.38
2023-04-21T20:38:16.912Z,79.39
2023-04-21T20:40:50.024Z,80.08
2023-04-21T20:43:23.148Z,75.06
2023-04-21T20:45:56.014Z,71.10
2023-04-21T20:48:30.187Z,70.44
2023-04-21T20:51:04.565Z,75.47
2023-04-21T20:53:37.429Z,81.53
2023-04-21T20:56:10.652Z,81.85
2023-04-21T20:58:43.455Z,82.08
2023-04-21T21:01:16.568Z,82.53
2023-04-21T21:03:51.393Z,82.85
2023-04-21T21:06:24.343Z,83.26
2023-04-21T21:08:57.304Z,82.92
2023-04-21T21:11:30.155Z,83.69
2023-04-21T21:14:02.953Z,84.23
2023-04-21T21:16:36.192Z,88.85
2023-04-21T21:19:12.485Z,89.99
2023-04-21T21:21:45.294Z,88.69
2023-04-21T21:24:18.259Z,87.00
2023-04-21T21:26:51.838Z,87.70
2023-04-21T21:29:24.750Z,87.34
2023-04-21T21:31:57.683Z,87.34
2023-04-21T21:34:31.855Z,87.68
2023-04-21T21:37:04.766Z,85.10
2023-04-21T21:39:38.047Z,86.64
2023-04-21T21:42:11.239Z,88.61
2023-04-21T21:44:44.096Z,92.00
2023-04-21T21:47:17.446Z,90.73
2023-04-21T21:49:54.685Z,90.75
2023-04-21T21:52:28.466Z,90.03
2023-04-21T21:55:01.278Z,89.90
2023-04-21T21:57:34.812Z,90.58
2023-04-21T22:00:12.516Z,90.18
2023-04-21T22:02:45.651Z,89.27
2023-04-21T22:05:20.129Z,88.92
2023-04-21T22:07:53.589Z,86.50
2023-04-21T22:10:26.903Z,89.40
2023-04-21T22:12:59.650Z,89.72
2023-04-21T22:15:33.880Z,89.04
2023-04-21T22:18:09.585Z,88.11
2023-04-21T22:20:43.767Z,88.96
2023-04-21T22:23:16.886Z,88.80
2023-04-21T22:25:49.674Z,88.42
2023-04-21T22:28:22.504Z,89.96
2023-04-21T22:30:55.925Z,92.96
2023-04-21T22:33:28.770Z,92.18
2023-04-21T22:36:03.132Z,90.50
2023-04-21T22:38:35.919Z,89.31
2023-04-21T22:41:08.773Z,90.41
2023-04-21T22:43:41.974Z,91.66
2023-04-21T22:46:15.275Z,89.15
2023-04-21T22:48:48.420Z,89.07
2023-04-21T22:51:23.074Z,88.77
2023-04-21T22:53:56.147Z,87.15
2023-04-21T22:56:29.146Z,91.55
2023-04-21T22:59:02.009Z,87.49
2023-04-21T23:01:34.888Z,87.60
2023-04-21T23:04:08.026Z,86.09
2023-04-21T23:06:42.273Z,86.43
2023-04-21T23:09:15.098Z,86.91
2023-04-21T23:11:47.955Z,86.13
2023-04-21T23:14:20.904Z,85.08
2023-04-21T23:16:54.445Z,87.43
2023-04-21T23:19:27.520Z,87.90
2023-04-21T23:22:01.751Z,85.18
2023-04-21T23:24:34.659Z,86.04
2023-04-21T23:27:07.526Z,88.48
2023-04-21T23:29:40.695Z,87.26
2023-04-21T23:32:13.856Z,89.04
2023-04-21T23:34:47.206Z,89.91
2023-04-21T23:37:21.592Z,89.70
2023-04-21T23:39:54.440Z,89.42
2023-04-21T23:42:27.522Z,90.32
2023-04-21T23:45:00.590Z,89.57
2023-04-21T23:47:33.737Z,92.04
2023-04-21T23:50:07.912Z,93.03
2023-04-21T23:52:44.023Z,89.23
2023-04-21T23:55:16.865Z,87.33
2023-04-21T23:57:49.685Z,86.26
